createdAt,value
2017-09-27T00:00:02.744Z,27.47
2017-09-27T00:02:32.489Z,26.30
2017-09-27T00:05:02.211Z,25.90
2017-09-27T00:07:31.185Z,26.93
2017-09-27T00:10:00.148Z,28.50
2017-09-27T00:12:29.884Z,28.07
2017-09-27T00:14:58.848Z,26.57
2017-09-27T00:17:27.824Z,26.17
2017-09-27T00:19:56.812Z,27.07
2017-09-27T00:22:25.794Z,27.60
2017-09-27T00:24:54.754Z,28.20
2017-09-27T00:27:24.590Z,24.80
2017-09-27T00:29:53.574Z,27.10
2017-09-27T00:32:22.531Z,25.30
2017-09-27T00:34:51.569Z,27.83
2017-09-27T00:37:20.568Z,27.60
2017-09-27T00:39:49.527Z,29.33
2017-09-27T00:42:18.546Z,26.77
2017-09-27T00:44:47.584Z,26.90
2017-09-27T00:47:17.317Z,27.30
2017-09-27T00:49:47.036Z,25.13
2017-09-27T00:52:16.029Z,26.50
2017-09-27T00:54:45.004Z,28.23
2017-09-27T00:57:14.392Z,27.17
2017-09-27T00:59:43.347Z,27.77
2017-09-27T01:02:12.351Z,28.50
2017-09-27T01:04:41.332Z,29.17
2017-09-27T01:07:11.140Z,30.60
2017-09-27T01:09:40.148Z,28.30
2017-09-27T01:12:09.104Z,30.40
2017-09-27T01:14:38.520Z,30.27
2017-09-27T01:17:07.473Z,30.50
2017-09-27T01:19:36.420Z,30.40
2017-09-27T01:22:05.413Z,31.60
2017-09-27T01:24:34.762Z,31.70
2017-09-27T01:27:03.749Z,28.90
2017-09-27T01:29:32.744Z,30.10
2017-09-27T01:32:02.225Z,30.40
2017-09-27T01:34:31.939Z,28.57
2017-09-27T01:37:01.309Z,30.03
2017-09-27T01:39:30.264Z,28.70
2017-09-27T01:41:59.228Z,29.47
2017-09-27T01:44:28.232Z,27.73
2017-09-27T01:46:57.236Z,28.77
2017-09-27T01:49:26.221Z,27.40
2017-09-27T01:51:55.193Z,27.30
2017-09-27T01:54:24.919Z,27.73
2017-09-27T01:56:53.937Z,29.30
2017-09-27T01:59:22.926Z,28.10
2017-09-27T02:01:51.887Z,29.87
2017-09-27T02:04:20.851Z,27.83
2017-09-27T02:06:49.833Z,29.63
2017-09-27T02:09:18.785Z,29.47
2017-09-27T02:11:47.773Z,27.80
2017-09-27T02:14:16.724Z,30.73
2017-09-27T02:16:46.542Z,30.37
2017-09-27T02:19:16.252Z,29.20
2017-09-27T02:21:46.148Z,28.07
2017-09-27T02:24:15.156Z,27.37
2017-09-27T02:26:44.908Z,28.27
2017-09-27T02:29:13.862Z,29.00
2017-09-27T02:31:43.616Z,27.93
2017-09-27T02:34:13.377Z,26.50
2017-09-27T02:36:43.125Z,27.30
2017-09-27T02:39:12.076Z,30.80
2017-09-27T02:41:41.841Z,29.03
2017-09-27T02:44:10.808Z,27.87
2017-09-27T02:46:39.765Z,28.90
2017-09-27T02:49:09.548Z,29.23
2017-09-27T02:51:38.501Z,29.73
2017-09-27T02:54:07.480Z,27.93
2017-09-27T02:56:36.440Z,28.07
2017-09-27T02:59:05.459Z,29.40
2017-09-27T03:01:34.425Z,29.10
2017-09-27T03:04:03.429Z,28.07
2017-09-27T03:06:32.377Z,27.73
2017-09-27T03:09:01.376Z,27.60
2017-09-27T03:11:30.337Z,27.23
2017-09-27T03:13:59.327Z,26.63
2017-09-27T03:16:28.271Z,26.97
2017-09-27T03:18:57.224Z,27.60
2017-09-27T03:21:26.264Z,25.67
2017-09-27T03:23:55.230Z,25.57
2017-09-27T03:26:24.200Z,25.93
2017-09-27T03:28:53.196Z,25.73
2017-09-27T03:31:22.201Z,25.23
2017-09-27T03:33:51.206Z,24.90
2017-09-27T03:36:20.194Z,22.70
2017-09-27T03:38:49.136Z,22.33
2017-09-27T03:41:18.129Z,22.60
2017-09-27T03:43:47.180Z,22.67
2017-09-27T03:46:16.159Z,23.63
2017-09-27T03:48:45.108Z,21.90
2017-09-27T03:51:14.116Z,21.90
2017-09-27T03:53:43.073Z,21.27
2017-09-27T03:56:12.826Z,21.90
2017-09-27T03:58:41.779Z,20.47
2017-09-27T04:01:10.767Z,22.50
2017-09-27T04:03:40.491Z,19.93
2017-09-27T04:06:09.877Z,20.67
2017-09-27T04:08:39.613Z,20.93
2017-09-27T04:11:08.596Z,20.67
2017-09-27T04:13:37.584Z,20.33
2017-09-27T04:16:06.544Z,21.50
2017-09-27T04:18:35.585Z,22.67
2017-09-27T04:21:04.602Z,21.10
2017-09-27T04:23:33.576Z,20.40
2017-09-27T04:26:02.536Z,20.77
2017-09-27T04:28:32.272Z,22.57
2017-09-27T04:31:01.229Z,22.13
2017-09-27T04:33:31.000Z,22.87
2017-09-27T04:35:59.979Z,25.50
2017-09-27T04:38:28.961Z,22.13
2017-09-27T04:40:57.921Z,24.40
2017-09-27T04:43:27.673Z,23.67
2017-09-27T04:45:56.637Z,24.40
2017-09-27T04:48:25.626Z,27.70
2017-09-27T04:50:54.604Z,26.20
2017-09-27T04:53:23.647Z,27.50
2017-09-27T04:55:53.193Z,28.07
2017-09-27T04:58:22.942Z,27.33
2017-09-27T05:00:52.303Z,26.77
2017-09-27T05:03:21.306Z,26.77
2017-09-27T05:05:51.439Z,28.37
2017-09-27T05:08:20.468Z,27.23
2017-09-27T05:10:49.425Z,29.40
2017-09-27T05:13:19.484Z,29.90
2017-09-27T05:15:49.692Z,29.63
2017-09-27T05:18:18.707Z,32.13
2017-09-27T05:20:47.663Z,28.70
2017-09-27T05:23:17.689Z,30.97
2017-09-27T05:25:46.640Z,28.40
2017-09-27T05:28:16.384Z,31.50
2017-09-27T05:30:45.908Z,30.23
2017-09-27T05:33:14.908Z,29.30
2017-09-27T05:35:43.954Z,29.40
2017-09-27T05:38:12.921Z,31.17
2017-09-27T05:40:41.899Z,31.20
2017-09-27T05:43:10.897Z,33.50
2017-09-27T05:45:39.854Z,29.17
2017-09-27T05:48:08.895Z,30.10
2017-09-27T05:50:38.608Z,28.47
2017-09-27T05:53:08.381Z,27.63
2017-09-27T05:55:37.715Z,28.40
2017-09-27T05:58:06.693Z,30.80
2017-09-27T06:00:35.667Z,29.03
2017-09-27T06:03:04.650Z,29.27
2017-09-27T06:05:33.610Z,30.07
2017-09-27T06:08:02.681Z,29.57
2017-09-27T06:10:32.164Z,33.77
2017-09-27T06:13:01.734Z,29.73
2017-09-27T06:15:30.688Z,32.83
2017-09-27T06:18:00.423Z,31.50
2017-09-27T06:20:29.453Z,30.10
2017-09-27T06:22:58.432Z,30.80
2017-09-27T06:25:27.408Z,31.40
2017-09-27T06:27:56.373Z,29.67
2017-09-27T06:30:26.053Z,31.13
2017-09-27T06:32:55.815Z,30.97
2017-09-27T06:35:24.776Z,31.80
2017-09-27T06:37:53.864Z,30.53
2017-09-27T06:40:23.199Z,29.50
2017-09-27T06:42:52.238Z,30.70
2017-09-27T06:45:21.199Z,29.43
2017-09-27T06:47:50.165Z,32.37
2017-09-27T06:50:19.860Z,30.53
2017-09-27T06:52:49.586Z,30.70
2017-09-27T06:55:18.584Z,32.07
2017-09-27T06:57:47.653Z,31.40
2017-09-27T07:00:16.685Z,30.00
2017-09-27T07:02:45.640Z,32.77
2017-09-27T07:05:16.411Z,29.73
2017-09-27T07:07:46.239Z,30.83
2017-09-27T07:10:16.006Z,31.20
2017-09-27T07:12:45.001Z,28.60
2017-09-27T07:15:14.608Z,29.87
2017-09-27T07:17:43.586Z,30.33
2017-09-27T07:20:13.310Z,29.77
2017-09-27T07:22:42.685Z,28.73
2017-09-27T07:25:12.431Z,29.90
2017-09-27T07:27:41.414Z,29.87
2017-09-27T07:30:10.372Z,31.00
2017-09-27T07:32:40.127Z,29.50
2017-09-27T07:35:09.083Z,29.60
2017-09-27T07:37:39.705Z,29.63
2017-09-27T07:40:09.454Z,30.30
2017-09-27T07:42:39.097Z,29.60
2017-09-27T07:45:08.092Z,29.70
2017-09-27T07:47:37.085Z,29.47
2017-09-27T07:50:06.049Z,30.10
2017-09-27T07:52:35.902Z,28.87
2017-09-27T07:55:05.642Z,30.83
2017-09-27T07:57:34.624Z,29.30
2017-09-27T08:00:04.346Z,28.80
2017-09-27T08:02:33.327Z,30.13
2017-09-27T08:05:03.030Z,30.33
2017-09-27T08:07:32.766Z,31.37
2017-09-27T08:10:01.821Z,30.70
2017-09-27T08:12:30.792Z,30.20
2017-09-27T08:14:59.876Z,28.87
2017-09-27T08:17:28.829Z,31.07
2017-09-27T08:19:57.805Z,30.57
2017-09-27T08:22:27.574Z,29.30
2017-09-27T08:24:56.532Z,30.80
2017-09-27T08:27:25.508Z,31.30
2017-09-27T08:29:55.658Z,27.67
2017-09-27T08:32:25.778Z,30.20
2017-09-27T08:34:54.782Z,29.40
2017-09-27T08:37:23.920Z,28.57
2017-09-27T08:39:52.857Z,28.60
2017-09-27T08:42:21.856Z,27.83
2017-09-27T08:44:50.824Z,31.23
2017-09-27T08:47:19.816Z,26.37
2017-09-27T08:49:48.780Z,28.43
2017-09-27T08:52:19.105Z,27.30
2017-09-27T08:54:48.876Z,27.80
2017-09-27T08:57:17.858Z,26.03
2017-09-27T08:59:47.612Z,25.47
2017-09-27T09:02:17.364Z,25.63
2017-09-27T09:04:46.419Z,25.43
2017-09-27T09:07:15.791Z,25.40
2017-09-27T09:09:44.812Z,24.73
2017-09-27T09:12:14.632Z,24.80
2017-09-27T09:14:43.608Z,26.33
2017-09-27T09:17:13.324Z,24.83
2017-09-27T09:19:43.068Z,26.40
2017-09-27T09:22:15.157Z,24.80
2017-09-27T09:24:44.361Z,27.10
2017-09-27T09:27:13.303Z,23.23
2017-09-27T09:29:42.299Z,25.43
2017-09-27T09:32:11.257Z,23.20
2017-09-27T09:34:40.235Z,23.80
2017-09-27T09:37:09.397Z,22.30
2017-09-27T09:39:38.366Z,23.23
2017-09-27T09:42:07.334Z,23.47
2017-09-27T09:44:37.190Z,24.07
2017-09-27T09:47:06.168Z,22.93
2017-09-27T09:49:35.166Z,23.37
2017-09-27T09:52:04.144Z,23.27
2017-09-27T09:54:33.114Z,22.87
2017-09-27T09:57:02.944Z,22.33
2017-09-27T09:59:31.922Z,23.67
2017-09-27T10:02:01.651Z,23.40
2017-09-27T10:04:31.806Z,25.17
2017-09-27T10:07:01.532Z,23.30
2017-09-27T10:09:30.515Z,22.30
2017-09-27T10:11:59.532Z,22.57
2017-09-27T10:14:28.515Z,24.50
2017-09-27T10:16:57.472Z,23.30
2017-09-27T10:19:26.445Z,23.57
2017-09-27T10:21:55.397Z,23.97
2017-09-27T10:24:24.353Z,21.27
2017-09-27T10:26:53.457Z,20.97
2017-09-27T10:29:22.436Z,20.47
2017-09-27T10:31:51.889Z,23.10
2017-09-27T10:34:21.736Z,23.93
2017-09-27T10:36:50.691Z,22.80
2017-09-27T10:39:20.455Z,22.90
2017-09-27T10:41:49.503Z,22.23
2017-09-27T10:44:18.492Z,23.67
2017-09-27T10:46:48.235Z,22.33
2017-09-27T10:49:17.220Z,23.20
2017-09-27T10:51:46.171Z,22.30
2017-09-27T10:54:15.558Z,22.90
2017-09-27T10:56:44.506Z,22.10
2017-09-27T10:59:13.519Z,21.63
2017-09-27T11:01:45.786Z,22.20
2017-09-27T11:04:14.767Z,20.63
2017-09-27T11:06:43.730Z,21.07
2017-09-27T11:09:13.533Z,19.60
2017-09-27T11:11:43.294Z,21.40
2017-09-27T11:14:12.251Z,22.60
2017-09-27T11:16:41.988Z,22.47
2017-09-27T11:19:11.701Z,21.60
2017-09-27T11:21:40.697Z,22.70
2017-09-27T11:24:09.661Z,21.37
2017-09-27T11:26:39.378Z,20.40
2017-09-27T11:29:08.775Z,21.50
2017-09-27T11:31:37.733Z,21.10
2017-09-27T11:34:07.841Z,21.43
2017-09-27T11:36:36.833Z,21.53
2017-09-27T11:39:06.105Z,22.37
2017-09-27T11:41:35.088Z,22.20
2017-09-27T11:44:04.100Z,20.87
2017-09-27T11:46:33.953Z,21.83
2017-09-27T11:49:03.665Z,21.80
2017-09-27T11:51:33.415Z,21.03
2017-09-27T11:54:02.471Z,22.00
2017-09-27T11:56:32.298Z,21.30
2017-09-27T11:59:01.662Z,22.13
2017-09-27T12:01:30.662Z,22.25
2017-09-27T12:03:59.667Z,22.00
2017-09-27T12:06:30.309Z,24.63
2017-09-27T12:08:59.280Z,22.50
2017-09-27T12:11:29.037Z,21.27
2017-09-27T12:13:58.003Z,22.53
2017-09-27T12:16:27.026Z,22.90
2017-09-27T12:18:56.857Z,21.50
2017-09-27T12:21:25.870Z,22.20
2017-09-27T12:23:54.851Z,20.77
2017-09-27T12:26:24.024Z,21.20
2017-09-27T12:28:52.987Z,22.40
2017-09-27T12:31:22.733Z,21.27
2017-09-27T12:33:51.741Z,23.30
2017-09-27T12:36:21.469Z,22.10
2017-09-27T12:38:50.443Z,22.33
2017-09-27T12:41:19.431Z,23.87
2017-09-27T12:43:48.789Z,23.10
2017-09-27T12:46:17.756Z,22.20
2017-09-27T12:48:47.528Z,22.90
2017-09-27T12:51:16.543Z,23.27
2017-09-27T12:53:45.543Z,23.73
2017-09-27T12:56:14.915Z,22.90
2017-09-27T12:58:43.865Z,21.47
2017-09-27T13:01:12.840Z,21.30
2017-09-27T13:03:42.625Z,23.43
2017-09-27T13:06:11.615Z,22.27
2017-09-27T13:08:40.651Z,21.53
2017-09-27T13:11:09.708Z,21.87
2017-09-27T13:13:38.672Z,22.00
2017-09-27T13:16:07.620Z,22.70
2017-09-27T13:18:36.704Z,22.57
2017-09-27T13:21:05.702Z,22.10
2017-09-27T13:23:35.439Z,22.30
2017-09-27T13:26:04.400Z,22.03
2017-09-27T13:28:34.122Z,22.00
2017-09-27T13:31:03.166Z,23.40
2017-09-27T13:33:32.160Z,22.20
2017-09-27T13:36:01.133Z,22.00
2017-09-27T13:38:30.868Z,23.17
2017-09-27T13:40:59.910Z,20.10
2017-09-27T13:43:28.936Z,20.83
2017-09-27T13:45:57.936Z,20.37
2017-09-27T13:48:26.912Z,20.23
2017-09-27T13:50:55.879Z,21.73
2017-09-27T13:53:24.843Z,22.93
2017-09-27T13:55:54.892Z,21.00
2017-09-27T13:58:24.246Z,22.37
2017-09-27T14:00:53.204Z,21.50
2017-09-27T14:03:22.205Z,23.57
2017-09-27T14:05:51.239Z,21.77
2017-09-27T14:08:20.988Z,21.07
2017-09-27T14:10:49.984Z,21.67
2017-09-27T14:13:18.955Z,21.43
2017-09-27T14:15:47.917Z,23.70
2017-09-27T14:18:17.754Z,20.50
2017-09-27T14:20:46.729Z,22.40
2017-09-27T14:23:16.098Z,22.40
2017-09-27T14:25:45.099Z,22.27
2017-09-27T14:28:14.124Z,23.00
2017-09-27T14:30:43.125Z,23.10
2017-09-27T14:33:12.178Z,23.40
2017-09-27T14:35:41.137Z,24.00
2017-09-27T14:38:10.149Z,23.90
2017-09-27T14:40:39.133Z,24.57
2017-09-27T14:43:08.221Z,22.57
2017-09-27T14:45:37.206Z,25.00
2017-09-27T14:48:06.182Z,24.47
2017-09-27T14:50:35.205Z,23.60
2017-09-27T14:53:04.207Z,24.20
2017-09-27T14:55:33.196Z,26.30
2017-09-27T14:58:02.550Z,25.10
2017-09-27T15:00:31.521Z,22.80
2017-09-27T15:03:01.270Z,23.60
2017-09-27T15:05:30.250Z,23.40
2017-09-27T15:07:59.212Z,24.90
2017-09-27T15:10:29.012Z,23.90
2017-09-27T15:12:58.822Z,22.57
2017-09-27T15:15:27.819Z,23.20
2017-09-27T15:17:56.796Z,22.40
2017-09-27T15:20:26.141Z,23.47
2017-09-27T15:22:55.099Z,23.93
2017-09-27T15:25:24.573Z,24.80
2017-09-27T15:27:53.536Z,26.67
2017-09-27T15:30:23.377Z,26.37
2017-09-27T15:32:54.066Z,28.00
2017-09-27T15:35:23.074Z,26.77
2017-09-27T15:37:52.057Z,26.67
2017-09-27T15:40:21.005Z,26.63
2017-09-27T15:42:50.032Z,25.07
2017-09-27T15:45:19.826Z,26.97
2017-09-27T15:47:49.544Z,27.10
2017-09-27T15:50:19.353Z,28.40
2017-09-27T15:52:49.173Z,25.53
2017-09-27T15:55:20.090Z,25.77
2017-09-27T15:57:49.073Z,24.47
2017-09-27T16:00:18.045Z,27.37
2017-09-27T16:02:47.805Z,26.70
2017-09-27T16:05:16.781Z,27.30
2017-09-27T16:07:47.263Z,26.17
2017-09-27T16:10:17.020Z,25.03
2017-09-27T16:12:46.777Z,23.53
2017-09-27T16:15:16.506Z,25.83
2017-09-27T16:17:46.258Z,25.07
2017-09-27T16:20:15.999Z,25.60
2017-09-27T16:22:45.413Z,24.80
2017-09-27T16:25:15.144Z,25.50
2017-09-27T16:27:44.156Z,25.73
2017-09-27T16:30:13.124Z,25.00
2017-09-27T16:32:43.221Z,26.00
2017-09-27T16:35:13.701Z,26.00
2017-09-27T16:37:43.489Z,25.67
2017-09-27T16:40:13.549Z,26.30
2017-09-27T16:42:42.541Z,26.93
2017-09-27T16:45:11.953Z,27.03
2017-09-27T16:47:40.938Z,28.03
2017-09-27T16:50:11.536Z,27.77
2017-09-27T16:52:42.013Z,28.07
2017-09-27T16:55:11.539Z,30.23
2017-09-27T16:57:41.282Z,27.87
2017-09-27T17:00:11.250Z,27.80
2017-09-27T17:02:41.498Z,29.83
2017-09-27T17:05:10.996Z,30.93
2017-09-27T17:07:40.377Z,30.87
2017-09-27T17:10:09.353Z,29.60
2017-09-27T17:12:38.340Z,29.73
2017-09-27T17:15:07.308Z,30.53
2017-09-27T17:17:36.321Z,28.93
2017-09-27T17:20:05.708Z,30.10
2017-09-27T17:22:34.833Z,29.60
2017-09-27T17:25:04.544Z,30.13
2017-09-27T17:27:33.947Z,30.53
2017-09-27T17:30:02.920Z,29.90
2017-09-27T17:32:31.944Z,30.63
2017-09-27T17:35:00.933Z,30.33
2017-09-27T17:37:30.297Z,29.83
2017-09-27T17:39:59.280Z,31.43
2017-09-27T17:42:29.028Z,31.87
2017-09-27T17:44:58.066Z,29.90
2017-09-27T17:47:27.813Z,30.63
2017-09-27T17:49:56.784Z,29.33
2017-09-27T17:52:26.512Z,28.53
2017-09-27T17:54:55.953Z,29.10
2017-09-27T17:57:25.757Z,29.77
2017-09-27T17:59:54.740Z,30.43
2017-09-27T18:02:23.736Z,29.83
2017-09-27T18:07:55.670Z,28.77
2017-09-27T18:10:41.352Z,30.33
2017-09-27T18:13:30.051Z,29.67
2017-09-27T18:16:14.678Z,34.57
2017-09-27T18:18:44.900Z,28.77
2017-09-27T18:21:13.954Z,30.43
2017-09-27T18:23:43.690Z,28.70
2017-09-27T18:26:13.427Z,29.37
2017-09-27T18:28:43.552Z,28.10
2017-09-27T18:31:12.516Z,31.27
2017-09-27T18:33:42.270Z,32.20
2017-09-27T18:36:11.267Z,31.70
2017-09-27T18:38:40.970Z,32.30
2017-09-27T18:41:10.463Z,30.30
2017-09-27T18:43:41.108Z,29.87
2017-09-27T18:46:10.084Z,32.67
2017-09-27T18:48:39.088Z,30.80
2017-09-27T18:51:08.979Z,31.43
2017-09-27T18:53:37.958Z,30.40
2017-09-27T18:56:06.946Z,30.43
2017-09-27T18:58:36.690Z,31.10
2017-09-27T19:01:05.721Z,32.67
2017-09-27T19:03:34.726Z,31.43
2017-09-27T19:06:03.902Z,31.10
2017-09-27T19:08:32.908Z,31.60
2017-09-27T19:11:01.910Z,31.17
2017-09-27T19:13:31.273Z,32.43
2017-09-27T19:16:01.054Z,32.20
2017-09-27T19:18:30.026Z,35.00
2017-09-27T19:20:59.445Z,29.67
2017-09-27T19:23:28.450Z,31.90
2017-09-27T19:25:57.423Z,29.73
2017-09-27T19:28:26.521Z,30.37
2017-09-27T19:30:55.754Z,33.47
2017-09-27T19:33:24.741Z,32.20
2017-09-27T19:35:53.701Z,30.80
2017-09-27T19:38:23.471Z,31.40
2017-09-27T19:40:52.470Z,31.13
2017-09-27T19:43:21.455Z,31.90
2017-09-27T19:45:51.263Z,32.20
2017-09-27T19:48:20.289Z,31.10
2017-09-27T19:50:50.462Z,28.63
2017-09-27T19:53:19.495Z,30.60
2017-09-27T19:55:49.225Z,30.83
2017-09-27T19:58:18.199Z,32.20
2017-09-27T20:00:47.210Z,33.37
2017-09-27T20:03:16.183Z,32.70
2017-09-27T20:05:45.940Z,32.10
2017-09-27T20:08:14.974Z,32.77
2017-09-27T20:10:44.795Z,31.87
2017-09-27T20:13:14.545Z,34.13
2017-09-27T20:15:44.464Z,33.77
2017-09-27T20:18:13.435Z,33.70
2017-09-27T20:20:42.446Z,31.77
2017-09-27T20:23:11.412Z,30.53
2017-09-27T20:25:41.880Z,32.33
2017-09-27T20:28:11.777Z,31.70
2017-09-27T20:30:40.765Z,33.03
2017-09-27T20:33:10.142Z,34.00
2017-09-27T20:35:39.576Z,31.40
2017-09-27T20:38:08.621Z,29.67
2017-09-27T20:40:38.381Z,29.20
2017-09-27T20:43:07.350Z,31.00
2017-09-27T20:45:37.634Z,31.10
2017-09-27T20:48:07.437Z,30.67
2017-09-27T20:50:37.639Z,29.10
2017-09-27T20:53:07.396Z,28.53
2017-09-27T20:55:36.380Z,30.77
2017-09-27T20:58:05.537Z,31.33
2017-09-27T21:00:34.527Z,30.37
2017-09-27T21:03:03.496Z,31.60
2017-09-27T21:05:32.554Z,30.17
2017-09-27T21:08:01.933Z,29.10
2017-09-27T21:10:30.944Z,30.83
2017-09-27T21:13:00.705Z,29.87
2017-09-27T21:15:29.681Z,31.50
2017-09-27T21:17:58.645Z,31.70
2017-09-27T21:20:27.650Z,31.07
2017-09-27T21:22:56.606Z,33.13
2017-09-27T21:25:25.661Z,30.87
2017-09-27T21:27:55.040Z,32.97
2017-09-27T21:30:24.275Z,33.40
2017-09-27T21:32:53.561Z,32.73
2017-09-27T21:35:22.557Z,33.20
2017-09-27T21:37:51.506Z,31.10
2017-09-27T21:40:20.521Z,34.00
2017-09-27T21:42:49.489Z,31.13
2017-09-27T21:45:18.869Z,31.50
2017-09-27T21:47:48.608Z,31.50
2017-09-27T21:50:17.593Z,34.10
2017-09-27T21:52:46.568Z,32.20
2017-09-27T21:55:16.377Z,29.27
2017-09-27T21:57:46.104Z,29.37
2017-09-27T22:00:15.097Z,30.40
2017-09-27T22:02:44.817Z,29.23
2017-09-27T22:05:14.341Z,29.33
2017-09-27T22:07:43.696Z,30.47
2017-09-27T22:10:13.871Z,28.47
2017-09-27T22:12:42.847Z,29.47
2017-09-27T22:15:11.822Z,29.30
2017-09-27T22:17:40.801Z,31.90
2017-09-27T22:20:10.152Z,32.00
2017-09-27T22:22:39.900Z,31.90
2017-09-27T22:25:09.620Z,29.80
2017-09-27T22:27:38.711Z,31.20
2017-09-27T22:30:08.442Z,27.97
2017-09-27T22:32:37.414Z,27.73
2017-09-27T22:35:07.141Z,30.10
2017-09-27T22:37:36.123Z,29.67
2017-09-27T22:40:05.613Z,30.43
2017-09-27T22:42:35.355Z,32.43
2017-09-27T22:45:04.308Z,31.73
2017-09-27T22:47:34.156Z,29.50
2017-09-27T22:50:03.495Z,30.90
2017-09-27T22:52:32.483Z,30.97
2017-09-27T22:55:01.473Z,29.30
2017-09-27T22:57:30.455Z,28.50
2017-09-27T22:59:59.938Z,28.40
2017-09-27T23:02:28.958Z,29.30
2017-09-27T23:04:57.914Z,27.93
2017-09-27T23:07:28.044Z,29.67
2017-09-27T23:09:57.049Z,31.23
2017-09-27T23:12:26.403Z,30.93
2017-09-27T23:14:56.155Z,29.03
2017-09-27T23:17:25.100Z,30.97
2017-09-27T23:19:54.671Z,30.67
2017-09-27T23:22:35.554Z,30.33
2017-09-27T23:25:05.338Z,30.77
2017-09-27T23:27:34.701Z,30.23
2017-09-27T23:30:04.072Z,28.37
2017-09-27T23:32:33.028Z,30.63
2017-09-27T23:35:02.082Z,30.40
2017-09-27T23:37:31.820Z,29.27
2017-09-27T23:40:01.560Z,31.00
2017-09-27T23:42:32.024Z,33.13
2017-09-27T23:45:01.884Z,32.60
2017-09-27T23:47:30.831Z,32.37
2017-09-27T23:50:00.589Z,32.80
2017-09-27T23:52:29.583Z,33.60
2017-09-27T23:54:59.208Z,32.27
2017-09-27T23:57:28.221Z,31.70
2017-09-27T23:59:58.353Z,31.97
